PWSweather.com
Personal Weather Stations
Station Observations
SUNDOWNFARMS
Union Church, Mobile, AL 36695

Union ChurchMobile, AL 36695

Lat: 30.600146, Lon: -88.36420900000002

Elevation: 95

Station Type: ws-1400-ip

Latest ConditionsUpdated 3:10:00 AM CST Friday, Feb 22, 2019
Currently Today's Max Today's Min Today's Average
Temperature 70.7°F21.5°C 71.8°F22.1°C 70.7°F21.5°C 71.6°F22.0°C
Dew Point 70.4°F21.3°C 71.3°F21.8°C 70.4°F21.3°C 71.1°F21.7°C
Winds 2.9 mph SE4.7 kmh SE 9.4 mph -15.1 kmh - - 3.1 mph 5.0 kmh
Wind Gusts 4.9 mph7.9 kmh 12.5 mph20.1 kmh - -
Humidity 99% 99% 97% 98%
Pressure 30.39 in1029.1 mb 30.40 in1029.5 mb 30.37 in1028.4 mb -
Hour Temp Dew Point Humidity Winds Wind Gusts Pressure Precip Precip Rate Daily Precip Total
03:10 AM 70.7°F21.5°C 70.4°F21.3°C 99% 2.9 mph SE4.7 kmh SE 4.9 mph7.9 kmh 30.39 in1029.1 mb 0.00 in0.0 mm 0.00 in0.0 mm 0.00 in0.0 mm
03:09 AM 70.7°F21.5°C 70.4°F21.3°C 99% 2.2 mph SSE3.5 kmh SSE 2.5 mph4.0 kmh 30.39 in1029.1 mb 0.00 in0.0 mm 0.00 in0.0 mm 0.00 in0.0 mm
03:08 AM 70.7°F21.5°C 70.4°F21.3°C 99% 3.8 mph SE6.1 kmh SE 4.9 mph7.9 kmh 30.39 in1029.1 mb 0.00 in0.0 mm 0.00 in0.0 mm 0.00 in0.0 mm
03:07 AM 70.7°F21.5°C 70.4°F21.3°C 99% 1.6 mph S2.6 kmh S 2.5 mph4.0 kmh 30.40 in1029.5 mb 0.00 in0.0 mm 0.00 in0.0 mm 0.00 in0.0 mm
03:06 AM 70.7°F21.5°C 70.4°F21.3°C 99% 1.3 mph SE2.1 kmh SE 2.5 mph4.0 kmh 30.40 in1029.5 mb 0.00 in0.0 mm 0.00 in0.0 mm 0.00 in0.0 mm
03:04 AM 70.7°F21.5°C 70.4°F21.3°C 99% 2.2 mph SSE3.5 kmh SSE 2.5 mph4.0 kmh 30.40 in1029.5 mb 0.00 in0.0 mm 0.00 in0.0 mm 0.00 in0.0 mm
03:03 AM 70.9°F21.6°C 70.6°F21.4°C 99% 2.2 mph SSE3.5 kmh SSE 2.5 mph4.0 kmh 30.40 in1029.5 mb 0.00 in0.0 mm 0.00 in0.0 mm 0.00 in0.0 mm
03:02 AM 70.9°F21.6°C 70.6°F21.4°C 99% 2.5 mph S4.0 kmh S 4.9 mph7.9 kmh 30.39 in1029.1 mb 0.00 in0.0 mm 0.00 in0.0 mm 0.00 in0.0 mm
03:01 AM 70.9°F21.6°C 70.6°F21.4°C 99% 3.4 mph SE5.5 kmh SE 4.9 mph7.9 kmh 30.39 in1029.1 mb 0.00 in0.0 mm 0.00 in0.0 mm 0.00 in0.0 mm
03:00 AM 70.9°F21.6°C 70.6°F21.4°C 99% 1.8 mph SE2.9 kmh SE 2.5 mph4.0 kmh 30.40 in1029.5 mb 0.00 in0.0 mm 0.00 in0.0 mm 0.00 in0.0 mm
02:59 AM 70.9°F21.6°C 70.6°F21.4°C 99% 3.8 mph SE6.1 kmh SE 4.9 mph7.9 kmh 30.40 in1029.5 mb 0.00 in0.0 mm 0.00 in0.0 mm 0.00 in0.0 mm
02:58 AM 70.9°F21.6°C 70.6°F21.4°C 99% 2.9 mph S4.7 kmh S 4.9 mph7.9 kmh 30.40 in1029.5 mb 0.00 in0.0 mm 0.00 in0.0 mm 0.00 in0.0 mm
02:55 AM 71.1°F21.7°C 70.8°F21.6°C 99% 4.5 mph SSE7.2 kmh SSE 4.9 mph7.9 kmh 30.39 in1029.1 mb 0.00 in0.0 mm 0.00 in0.0 mm 0.00 in0.0 mm
02:54 AM 71.1°F21.7°C 70.8°F21.6°C 99% 1.6 mph SSE2.6 kmh SSE 2.5 mph4.0 kmh 30.39 in1029.1 mb 0.00 in0.0 mm 0.00 in0.0 mm 0.00 in0.0 mm
02:53 AM 71.1°F21.7°C 70.8°F21.6°C 99% 1.6 mph SSE2.6 kmh SSE 2.5 mph4.0 kmh 30.40 in1029.5 mb 0.00 in0.0 mm 0.00 in0.0 mm 0.00 in0.0 mm
02:52 AM 71.1°F21.7°C 70.8°F21.6°C 99% 1.6 mph ESE2.6 kmh ESE 2.5 mph4.0 kmh 30.39 in1029.1 mb 0.00 in0.0 mm 0.00 in0.0 mm 0.00 in0.0 mm
02:51 AM 71.1°F21.7°C 70.8°F21.6°C 99% 0.9 mph SE1.4 kmh SE 2.5 mph4.0 kmh 30.39 in1029.1 mb 0.00 in0.0 mm 0.00 in0.0 mm 0.00 in0.0 mm
02:50 AM 71.1°F21.7°C 70.8°F21.6°C 99% 3.4 mph S5.5 kmh S 4.9 mph7.9 kmh 30.39 in1029.1 mb 0.00 in0.0 mm 0.00 in0.0 mm 0.00 in0.0 mm
02:49 AM 71.2°F21.8°C 70.9°F21.6°C 99% 2.2 mph S3.5 kmh S 4.9 mph7.9 kmh 30.39 in1029.1 mb 0.00 in0.0 mm 0.00 in0.0 mm 0.00 in0.0 mm
02:48 AM 71.2°F21.8°C 70.9°F21.6°C 99% 1.8 mph S2.9 kmh S 2.5 mph4.0 kmh 30.39 in1029.1 mb 0.00 in0.0 mm 0.00 in0.0 mm 0.00 in0.0 mm
02:46 AM 71.2°F21.8°C 70.9°F21.6°C 99% 3.8 mph SE6.1 kmh SE 4.9 mph7.9 kmh 30.38 in1028.8 mb 0.00 in0.0 mm 0.00 in0.0 mm 0.00 in0.0 mm
02:45 AM 71.2°F21.8°C 70.9°F21.6°C 99% 4.0 mph SSE6.4 kmh SSE 4.9 mph7.9 kmh 30.39 in1029.1 mb 0.00 in0.0 mm 0.00 in0.0 mm 0.00 in0.0 mm
02:43 AM 71.2°F21.8°C 70.9°F21.6°C 99% 1.3 mph SSE2.1 kmh SSE 2.5 mph4.0 kmh 30.39 in1029.1 mb 0.00 in0.0 mm 0.00 in0.0 mm 0.00 in0.0 mm
02:42 AM 71.2°F21.8°C 70.9°F21.6°C 99% 2.5 mph SE4.0 kmh SE 2.5 mph4.0 kmh 30.39 in1029.1 mb 0.00 in0.0 mm 0.00 in0.0 mm 0.00 in0.0 mm
02:41 AM 71.4°F21.9°C 71.1°F21.7°C 99% 3.8 mph SSE6.1 kmh SSE 4.9 mph7.9 kmh 30.39 in1029.1 mb 0.00 in0.0 mm 0.00 in0.0 mm 0.00 in0.0 mm
02:40 AM 71.4°F21.9°C 71.1°F21.7°C 99% 3.1 mph S5.0 kmh S 4.9 mph7.9 kmh 30.39 in1029.1 mb 0.00 in0.0 mm 0.00 in0.0 mm 0.00 in0.0 mm
02:39 AM 71.4°F21.9°C 71.1°F21.7°C 99% 2.9 mph SSE4.7 kmh SSE 4.9 mph7.9 kmh 30.39 in1029.1 mb 0.00 in0.0 mm 0.00 in0.0 mm 0.00 in0.0 mm
02:37 AM 71.4°F21.9°C 71.1°F21.7°C 99% 5.6 mph SE9.0 kmh SE 7.6 mph12.2 kmh 30.39 in1029.1 mb 0.00 in0.0 mm 0.00 in0.0 mm 0.00 in0.0 mm
02:36 AM 71.4°F21.9°C 71.1°F21.7°C 99% 5.6 mph SE9.0 kmh SE 7.6 mph12.2 kmh 30.39 in1029.1 mb 0.00 in0.0 mm 0.00 in0.0 mm 0.00 in0.0 mm
02:35 AM 71.4°F21.9°C 71.1°F21.7°C 99% 6.3 mph S10.1 kmh S 7.6 mph12.2 kmh 30.38 in1028.8 mb 0.00 in0.0 mm 0.00 in0.0 mm 0.00 in0.0 mm
02:33 AM 71.4°F21.9°C 71.1°F21.7°C 99% 3.4 mph S5.5 kmh S 4.9 mph7.9 kmh 30.39 in1029.1 mb 0.00 in0.0 mm 0.00 in0.0 mm 0.00 in0.0 mm
02:32 AM 71.6°F22.0°C 71.3°F21.8°C 99% 2.9 mph SE4.7 kmh SE 4.9 mph7.9 kmh 30.40 in1029.5 mb 0.00 in0.0 mm 0.00 in0.0 mm 0.00 in0.0 mm
02:30 AM 71.6°F22.0°C 71.3°F21.8°C 99% 3.4 mph SE5.5 kmh SE 4.9 mph7.9 kmh 30.39 in1029.1 mb 0.00 in0.0 mm 0.00 in0.0 mm 0.00 in0.0 mm
02:28 AM 71.6°F22.0°C 71.3°F21.8°C 99% 4.9 mph S7.9 kmh S 7.6 mph12.2 kmh 30.39 in1029.1 mb 0.00 in0.0 mm 0.00 in0.0 mm 0.00 in0.0 mm
02:27 AM 71.6°F22.0°C 71.3°F21.8°C 99% 4.9 mph SE7.9 kmh SE 4.9 mph7.9 kmh 30.39 in1029.1 mb 0.00 in0.0 mm 0.00 in0.0 mm 0.00 in0.0 mm
02:26 AM 71.6°F22.0°C 71.3°F21.8°C 99% 4.9 mph SSE7.9 kmh SSE 7.6 mph12.2 kmh 30.40 in1029.5 mb 0.00 in0.0 mm 0.00 in0.0 mm 0.00 in0.0 mm
02:25 AM 71.6°F22.0°C 71.3°F21.8°C 99% 4.9 mph SSE7.9 kmh SSE 7.6 mph12.2 kmh 30.39 in1029.1 mb 0.00 in0.0 mm 0.00 in0.0 mm 0.00 in0.0 mm
02:24 AM 71.6°F22.0°C 71.3°F21.8°C 99% 3.1 mph S5.0 kmh S 4.9 mph7.9 kmh 30.39 in1029.1 mb 0.00 in0.0 mm 0.00 in0.0 mm 0.00 in0.0 mm
02:23 AM 71.6°F22.0°C 71.3°F21.8°C 99% 2.5 mph S4.0 kmh S 2.5 mph4.0 kmh 30.38 in1028.8 mb 0.00 in0.0 mm 0.00 in0.0 mm 0.00 in0.0 mm
02:21 AM 71.6°F22.0°C 71.3°F21.8°C 99% 3.1 mph SE5.0 kmh SE 4.9 mph7.9 kmh 30.40 in1029.5 mb 0.00 in0.0 mm 0.00 in0.0 mm 0.00 in0.0 mm
02:19 AM 71.8°F22.1°C 71.2°F21.8°C 98% 5.4 mph SE8.7 kmh SE 7.6 mph12.2 kmh 30.38 in1028.8 mb 0.00 in0.0 mm 0.00 in0.0 mm 0.00 in0.0 mm
02:18 AM 71.8°F22.1°C 71.2°F21.8°C 98% 3.1 mph S5.0 kmh S 4.9 mph7.9 kmh 30.38 in1028.8 mb 0.00 in0.0 mm 0.00 in0.0 mm 0.00 in0.0 mm
02:17 AM 71.8°F22.1°C 71.2°F21.8°C 98% 2.9 mph SE4.7 kmh SE 4.9 mph7.9 kmh 30.39 in1029.1 mb 0.00 in0.0 mm 0.00 in0.0 mm 0.00 in0.0 mm
02:16 AM 71.8°F22.1°C 71.2°F21.8°C 98% 4.7 mph S7.6 kmh S 4.9 mph7.9 kmh 30.38 in1028.8 mb 0.00 in0.0 mm 0.00 in0.0 mm 0.00 in0.0 mm
02:15 AM 71.8°F22.1°C 71.2°F21.8°C 98% 0.2 mph SSE0.3 kmh SSE 2.5 mph4.0 kmh 30.39 in1029.1 mb 0.00 in0.0 mm 0.00 in0.0 mm 0.00 in0.0 mm
02:13 AM 71.8°F22.1°C 71.2°F21.8°C 98% 2.5 mph S4.0 kmh S 4.9 mph7.9 kmh 30.39 in1029.1 mb 0.00 in0.0 mm 0.00 in0.0 mm 0.00 in0.0 mm
02:12 AM 71.8°F22.1°C 71.2°F21.8°C 98% 0.2 mph SSW0.3 kmh SSW 2.5 mph4.0 kmh 30.38 in1028.8 mb 0.00 in0.0 mm 0.00 in0.0 mm 0.00 in0.0 mm
02:10 AM 71.8°F22.1°C 71.2°F21.8°C 98% 1.6 mph SSE2.6 kmh SSE 2.5 mph4.0 kmh 30.39 in1029.1 mb 0.00 in0.0 mm 0.00 in0.0 mm 0.00 in0.0 mm
02:09 AM 71.8°F22.1°C 71.2°F21.8°C 98% 2.2 mph SSE3.5 kmh SSE 2.5 mph4.0 kmh 30.39 in1029.1 mb 0.00 in0.0 mm 0.00 in0.0 mm 0.00 in0.0 mm
02:08 AM 71.8°F22.1°C 71.2°F21.8°C 98% 2.2 mph SSE3.5 kmh SSE 2.5 mph4.0 kmh 30.38 in1028.8 mb 0.00 in0.0 mm 0.00 in0.0 mm 0.00 in0.0 mm
02:05 AM 71.8°F22.1°C 71.2°F21.8°C 98% Calm Calm -- 30.38 in1028.8 mb 0.00 in0.0 mm 0.00 in0.0 mm 0.00 in0.0 mm
02:04 AM 71.8°F22.1°C 71.2°F21.8°C 98% 1.8 mph S2.9 kmh S 2.5 mph4.0 kmh 30.38 in1028.8 mb 0.00 in0.0 mm 0.00 in0.0 mm 0.00 in0.0 mm
02:03 AM 71.8°F22.1°C 71.2°F21.8°C 98% 1.6 mph S2.6 kmh S 2.5 mph4.0 kmh 30.38 in1028.8 mb 0.00 in0.0 mm 0.00 in0.0 mm 0.00 in0.0 mm
02:01 AM 71.8°F22.1°C 71.2°F21.8°C 98% 5.4 mph S8.7 kmh S 7.6 mph12.2 kmh 30.38 in1028.8 mb 0.00 in0.0 mm 0.00 in0.0 mm 0.00 in0.0 mm
02:00 AM 71.8°F22.1°C 71.2°F21.8°C 98% 5.4 mph S8.7 kmh S 7.6 mph12.2 kmh 30.39 in1029.1 mb 0.00 in0.0 mm 0.00 in0.0 mm 0.00 in0.0 mm
01:59 AM 71.8°F22.1°C 71.2°F21.8°C 98% 2.2 mph S3.5 kmh S 2.5 mph4.0 kmh 30.39 in1029.1 mb 0.00 in0.0 mm 0.00 in0.0 mm 0.00 in0.0 mm
01:58 AM 71.8°F22.1°C 71.2°F21.8°C 98% 2.2 mph S3.5 kmh S 2.5 mph4.0 kmh 30.38 in1028.8 mb 0.00 in0.0 mm 0.00 in0.0 mm 0.00 in0.0 mm
01:57 AM 71.8°F22.1°C 70.9°F21.6°C 97% 2.2 mph S3.5 kmh S 2.5 mph4.0 kmh 30.38 in1028.8 mb 0.00 in0.0 mm 0.00 in0.0 mm 0.00 in0.0 mm
01:56 AM 71.8°F22.1°C 70.9°F21.6°C 97% 3.4 mph S5.5 kmh S 4.9 mph7.9 kmh 30.39 in1029.1 mb 0.00 in0.0 mm 0.00 in0.0 mm 0.00 in0.0 mm
01:55 AM 71.8°F22.1°C 70.9°F21.6°C 97% 4.0 mph S6.4 kmh S 4.9 mph7.9 kmh 30.39 in1029.1 mb 0.00 in0.0 mm 0.00 in0.0 mm 0.00 in0.0 mm
01:54 AM 71.8°F22.1°C 70.9°F21.6°C 97% 2.5 mph SSE4.0 kmh SSE 2.5 mph4.0 kmh 30.38 in1028.8 mb 0.00 in0.0 mm 0.00 in0.0 mm 0.00 in0.0 mm
01:52 AM 71.8°F22.1°C 70.9°F21.6°C 97% 0.2 mph SSE0.3 kmh SSE 2.5 mph4.0 kmh 30.38 in1028.8 mb 0.00 in0.0 mm 0.00 in0.0 mm 0.00 in0.0 mm
01:51 AM 71.8°F22.1°C 70.9°F21.6°C 97% 2.9 mph SE4.7 kmh SE 4.9 mph7.9 kmh 30.39 in1029.1 mb 0.00 in0.0 mm 0.00 in0.0 mm 0.00 in0.0 mm
01:50 AM 71.8°F22.1°C 70.9°F21.6°C 97% 2.9 mph SE4.7 kmh SE 4.9 mph7.9 kmh 30.38 in1028.8 mb 0.00 in0.0 mm 0.00 in0.0 mm 0.00 in0.0 mm
01:49 AM 71.8°F22.1°C 70.9°F21.6°C 97% 3.4 mph SE5.5 kmh SE 4.9 mph7.9 kmh 30.38 in1028.8 mb 0.00 in0.0 mm 0.00 in0.0 mm 0.00 in0.0 mm
01:48 AM 71.8°F22.1°C 70.9°F21.6°C 97% 3.4 mph SSE5.5 kmh SSE 4.9 mph7.9 kmh 30.39 in1029.1 mb 0.00 in0.0 mm 0.00 in0.0 mm 0.00 in0.0 mm
01:47 AM 71.8°F22.1°C 70.9°F21.6°C 97% 2.2 mph SSW3.5 kmh SSW 2.5 mph4.0 kmh 30.38 in1028.8 mb 0.00 in0.0 mm 0.00 in0.0 mm 0.00 in0.0 mm
01:46 AM 71.8°F22.1°C 70.9°F21.6°C 97% 3.4 mph SE5.5 kmh SE 4.9 mph7.9 kmh 30.38 in1028.8 mb 0.00 in0.0 mm 0.00 in0.0 mm 0.00 in0.0 mm
01:45 AM 71.8°F22.1°C 70.9°F21.6°C 97% 1.8 mph SE2.9 kmh SE 2.5 mph4.0 kmh 30.38 in1028.8 mb 0.00 in0.0 mm 0.00 in0.0 mm 0.00 in0.0 mm
01:43 AM 71.8°F22.1°C 70.9°F21.6°C 97% 2.9 mph SE4.7 kmh SE 4.9 mph7.9 kmh 30.38 in1028.8 mb 0.00 in0.0 mm 0.00 in0.0 mm 0.00 in0.0 mm
01:42 AM 71.8°F22.1°C 70.9°F21.6°C 97% 2.5 mph SE4.0 kmh SE 2.5 mph4.0 kmh 30.39 in1029.1 mb 0.00 in0.0 mm 0.00 in0.0 mm 0.00 in0.0 mm
01:41 AM 71.8°F22.1°C 70.9°F21.6°C 97% 9.4 mph SE15.1 kmh SE 12.5 mph20.1 kmh 30.38 in1028.8 mb 0.00 in0.0 mm 0.00 in0.0 mm 0.00 in0.0 mm
01:38 AM 71.8°F22.1°C 70.9°F21.6°C 97% 2.5 mph SE4.0 kmh SE 4.9 mph7.9 kmh 30.39 in1029.1 mb 0.00 in0.0 mm 0.00 in0.0 mm 0.00 in0.0 mm
01:37 AM 71.8°F22.1°C 70.9°F21.6°C 97% 2.5 mph S4.0 kmh S 2.5 mph4.0 kmh 30.39 in1029.1 mb 0.00 in0.0 mm 0.00 in0.0 mm 0.00 in0.0 mm
01:36 AM 71.8°F22.1°C 70.9°F21.6°C 97% 2.9 mph SE4.7 kmh SE 4.9 mph7.9 kmh 30.38 in1028.8 mb 0.00 in0.0 mm 0.00 in0.0 mm 0.00 in0.0 mm
01:34 AM 71.8°F22.1°C 70.9°F21.6°C 97% 5.6 mph S9.0 kmh S 7.6 mph12.2 kmh 30.38 in1028.8 mb 0.00 in0.0 mm 0.00 in0.0 mm 0.00 in0.0 mm
01:32 AM 71.8°F22.1°C 70.9°F21.6°C 97% 2.9 mph S4.7 kmh S 4.9 mph7.9 kmh 30.39 in1029.1 mb 0.00 in0.0 mm 0.00 in0.0 mm 0.00 in0.0 mm
01:31 AM 71.8°F22.1°C 70.9°F21.6°C 97% 2.5 mph E4.0 kmh E 4.9 mph7.9 kmh 30.39 in1029.1 mb 0.00 in0.0 mm 0.00 in0.0 mm 0.00 in0.0 mm
01:30 AM 71.8°F22.1°C 70.9°F21.6°C 97% 3.1 mph ESE5.0 kmh ESE 4.9 mph7.9 kmh 30.39 in1029.1 mb 0.00 in0.0 mm 0.00 in0.0 mm 0.00 in0.0 mm
01:29 AM 71.8°F22.1°C 70.9°F21.6°C 97% 2.2 mph SE3.5 kmh SE 2.5 mph4.0 kmh 30.38 in1028.8 mb 0.00 in0.0 mm 0.00 in0.0 mm 0.00 in0.0 mm
01:28 AM 71.8°F22.1°C 70.9°F21.6°C 97% 4.9 mph SE7.9 kmh SE 7.6 mph12.2 kmh 30.38 in1028.8 mb 0.00 in0.0 mm 0.00 in0.0 mm 0.00 in0.0 mm
01:27 AM 71.8°F22.1°C 70.9°F21.6°C 97% 5.4 mph S8.7 kmh S 7.6 mph12.2 kmh 30.38 in1028.8 mb 0.00 in0.0 mm 0.00 in0.0 mm 0.00 in0.0 mm
01:25 AM 71.8°F22.1°C 71.2°F21.8°C 98% 0.7 mph S1.1 kmh S 2.5 mph4.0 kmh 30.38 in1028.8 mb 0.00 in0.0 mm 0.00 in0.0 mm 0.00 in0.0 mm
01:24 AM 71.8°F22.1°C 71.2°F21.8°C 98% 2.2 mph SE3.5 kmh SE 2.5 mph4.0 kmh 30.38 in1028.8 mb 0.00 in0.0 mm 0.00 in0.0 mm 0.00 in0.0 mm
01:22 AM 71.8°F22.1°C 71.2°F21.8°C 98% 0.7 mph S1.1 kmh S 2.5 mph4.0 kmh 30.39 in1029.1 mb 0.00 in0.0 mm 0.00 in0.0 mm 0.00 in0.0 mm
01:21 AM 71.8°F22.1°C 71.2°F21.8°C 98% 1.6 mph SSW2.6 kmh SSW 2.5 mph4.0 kmh 30.38 in1028.8 mb 0.00 in0.0 mm 0.00 in0.0 mm 0.00 in0.0 mm
01:20 AM 71.8°F22.1°C 71.2°F21.8°C 98% 3.4 mph SE5.5 kmh SE 4.9 mph7.9 kmh 30.39 in1029.1 mb 0.00 in0.0 mm 0.00 in0.0 mm 0.00 in0.0 mm
01:19 AM 71.8°F22.1°C 71.2°F21.8°C 98% 3.1 mph S5.0 kmh S 4.9 mph7.9 kmh 30.39 in1029.1 mb 0.00 in0.0 mm 0.00 in0.0 mm 0.00 in0.0 mm
01:18 AM 71.8°F22.1°C 71.2°F21.8°C 98% 3.1 mph SSE5.0 kmh SSE 4.9 mph7.9 kmh 30.39 in1029.1 mb 0.00 in0.0 mm 0.00 in0.0 mm 0.00 in0.0 mm
01:17 AM 71.8°F22.1°C 71.2°F21.8°C 98% 2.2 mph SE3.5 kmh SE 2.5 mph4.0 kmh 30.38 in1028.8 mb 0.00 in0.0 mm 0.00 in0.0 mm 0.00 in0.0 mm
01:15 AM 71.8°F22.1°C 71.2°F21.8°C 98% 1.8 mph SE2.9 kmh SE 2.5 mph4.0 kmh 30.39 in1029.1 mb 0.00 in0.0 mm 0.00 in0.0 mm 0.00 in0.0 mm
01:13 AM 71.8°F22.1°C 71.2°F21.8°C 98% 2.9 mph S4.7 kmh S 4.9 mph7.9 kmh 30.38 in1028.8 mb 0.00 in0.0 mm 0.00 in0.0 mm 0.00 in0.0 mm
01:11 AM 71.8°F22.1°C 71.2°F21.8°C 98% 2.2 mph S3.5 kmh S 4.9 mph7.9 kmh 30.38 in1028.8 mb 0.00 in0.0 mm 0.00 in0.0 mm 0.00 in0.0 mm
01:10 AM 71.8°F22.1°C 71.2°F21.8°C 98% 2.9 mph S4.7 kmh S 4.9 mph7.9 kmh 30.38 in1028.8 mb 0.00 in0.0 mm 0.00 in0.0 mm 0.00 in0.0 mm
01:09 AM 71.8°F22.1°C 71.2°F21.8°C 98% Calm Calm -- 30.38 in1028.8 mb 0.00 in0.0 mm 0.00 in0.0 mm 0.00 in0.0 mm
01:06 AM 71.8°F22.1°C 71.2°F21.8°C 98% 0.9 mph SSE1.4 kmh SSE 2.5 mph4.0 kmh 30.38 in1028.8 mb 0.00 in0.0 mm 0.00 in0.0 mm 0.00 in0.0 mm
01:05 AM 71.8°F22.1°C 71.2°F21.8°C 98% 1.6 mph S2.6 kmh S 2.5 mph4.0 kmh 30.37 in1028.4 mb 0.00 in0.0 mm 0.00 in0.0 mm 0.00 in0.0 mm
01:04 AM 71.8°F22.1°C 71.2°F21.8°C 98% 3.8 mph S6.1 kmh S 4.9 mph7.9 kmh 30.38 in1028.8 mb 0.00 in0.0 mm 0.00 in0.0 mm 0.00 in0.0 mm
01:03 AM 71.8°F22.1°C 71.2°F21.8°C 98% 2.9 mph SE4.7 kmh SE 4.9 mph7.9 kmh 30.38 in1028.8 mb 0.00 in0.0 mm 0.00 in0.0 mm 0.00 in0.0 mm
01:02 AM 71.8°F22.1°C 71.2°F21.8°C 98% 3.1 mph SSW5.0 kmh SSW 4.9 mph7.9 kmh 30.39 in1029.1 mb 0.00 in0.0 mm 0.00 in0.0 mm 0.00 in0.0 mm
01:01 AM 71.8°F22.1°C 71.2°F21.8°C 98% 2.9 mph S4.7 kmh S 4.9 mph7.9 kmh 30.39 in1029.1 mb 0.00 in0.0 mm 0.00 in0.0 mm 0.00 in0.0 mm
01:00 AM 71.8°F22.1°C 71.2°F21.8°C 98% 3.8 mph SE6.1 kmh SE 4.9 mph7.9 kmh 30.38 in1028.8 mb 0.00 in0.0 mm 0.00 in0.0 mm 0.00 in0.0 mm
12:58 AM 71.8°F22.1°C 71.2°F21.8°C 98% 3.8 mph SE6.1 kmh SE 4.9 mph7.9 kmh 30.38 in1028.8 mb 0.00 in0.0 mm 0.00 in0.0 mm 0.00 in0.0 mm
12:57 AM 71.8°F22.1°C 71.2°F21.8°C 98% 4.9 mph SE7.9 kmh SE 7.6 mph12.2 kmh 30.38 in1028.8 mb 0.00 in0.0 mm 0.00 in0.0 mm 0.00 in0.0 mm
12:56 AM 71.8°F22.1°C 71.2°F21.8°C 98% 1.3 mph S2.1 kmh S 2.5 mph4.0 kmh 30.38 in1028.8 mb 0.00 in0.0 mm 0.00 in0.0 mm 0.00 in0.0 mm
12:55 AM 71.8°F22.1°C 71.2°F21.8°C 98% 1.3 mph S2.1 kmh S 2.5 mph4.0 kmh 30.38 in1028.8 mb 0.00 in0.0 mm 0.00 in0.0 mm 0.00 in0.0 mm
12:54 AM 71.8°F22.1°C 71.2°F21.8°C 98% 2.2 mph S3.5 kmh S 2.5 mph4.0 kmh 30.38 in1028.8 mb 0.00 in0.0 mm 0.00 in0.0 mm 0.00 in0.0 mm
12:53 AM 71.8°F22.1°C 71.2°F21.8°C 98% 1.8 mph S2.9 kmh S 2.5 mph4.0 kmh 30.38 in1028.8 mb 0.00 in0.0 mm 0.00 in0.0 mm 0.00 in0.0 mm
12:51 AM 71.8°F22.1°C 71.2°F21.8°C 98% 6.0 mph SE9.7 kmh SE 7.6 mph12.2 kmh 30.38 in1028.8 mb 0.00 in0.0 mm 0.00 in0.0 mm 0.00 in0.0 mm
12:50 AM 71.8°F22.1°C 71.2°F21.8°C 98% 3.1 mph S5.0 kmh S 4.9 mph7.9 kmh 30.38 in1028.8 mb 0.00 in0.0 mm 0.00 in0.0 mm 0.00 in0.0 mm
12:48 AM 71.8°F22.1°C 71.2°F21.8°C 98% 4.0 mph S6.4 kmh S 4.9 mph7.9 kmh 30.38 in1028.8 mb 0.00 in0.0 mm 0.00 in0.0 mm 0.00 in0.0 mm
12:47 AM 71.8°F22.1°C 71.2°F21.8°C 98% 4.7 mph S7.6 kmh S 7.6 mph12.2 kmh 30.38 in1028.8 mb 0.00 in0.0 mm 0.00 in0.0 mm 0.00 in0.0 mm
12:46 AM 71.8°F22.1°C 71.2°F21.8°C 98% 2.2 mph S3.5 kmh S 4.9 mph7.9 kmh 30.37 in1028.4 mb 0.00 in0.0 mm 0.00 in0.0 mm 0.00 in0.0 mm
12:45 AM 71.8°F22.1°C 71.2°F21.8°C 98% 2.2 mph S3.5 kmh S 4.9 mph7.9 kmh 30.38 in1028.8 mb 0.00 in0.0 mm 0.00 in0.0 mm 0.00 in0.0 mm
12:44 AM 71.8°F22.1°C 71.2°F21.8°C 98% 3.4 mph SSE5.5 kmh SSE 4.9 mph7.9 kmh 30.38 in1028.8 mb 0.00 in0.0 mm 0.00 in0.0 mm 0.00 in0.0 mm
12:43 AM 71.8°F22.1°C 71.2°F21.8°C 98% 3.8 mph SE6.1 kmh SE 4.9 mph7.9 kmh 30.38 in1028.8 mb 0.00 in0.0 mm 0.00 in0.0 mm 0.00 in0.0 mm
12:42 AM 71.8°F22.1°C 71.2°F21.8°C 98% 5.4 mph SSE8.7 kmh SSE 7.6 mph12.2 kmh 30.38 in1028.8 mb 0.00 in0.0 mm 0.00 in0.0 mm 0.00 in0.0 mm
12:39 AM 71.8°F22.1°C 71.2°F21.8°C 98% 2.9 mph S4.7 kmh S 4.9 mph7.9 kmh 30.38 in1028.8 mb 0.00 in0.0 mm 0.00 in0.0 mm 0.00 in0.0 mm
12:38 AM 71.8°F22.1°C 71.2°F21.8°C 98% 4.7 mph SE7.6 kmh SE 7.6 mph12.2 kmh 30.38 in1028.8 mb 0.00 in0.0 mm 0.00 in0.0 mm 0.00 in0.0 mm
12:37 AM 71.8°F22.1°C 71.2°F21.8°C 98% 4.7 mph SE7.6 kmh SE 7.6 mph12.2 kmh 30.38 in1028.8 mb 0.00 in0.0 mm 0.00 in0.0 mm 0.00 in0.0 mm
12:36 AM 71.8°F22.1°C 71.2°F21.8°C 98% 2.2 mph SE3.5 kmh SE 2.5 mph4.0 kmh 30.38 in1028.8 mb 0.00 in0.0 mm 0.00 in0.0 mm 0.00 in0.0 mm
12:35 AM 71.8°F22.1°C 71.2°F21.8°C 98% 1.6 mph S2.6 kmh S 2.5 mph4.0 kmh 30.38 in1028.8 mb 0.00 in0.0 mm 0.00 in0.0 mm 0.00 in0.0 mm
12:34 AM 71.8°F22.1°C 71.2°F21.8°C 98% 2.2 mph SSE3.5 kmh SSE 4.9 mph7.9 kmh 30.37 in1028.4 mb 0.00 in0.0 mm 0.00 in0.0 mm 0.00 in0.0 mm
12:33 AM 71.8°F22.1°C 71.2°F21.8°C 98% 3.1 mph S5.0 kmh S 4.9 mph7.9 kmh 30.38 in1028.8 mb 0.00 in0.0 mm 0.00 in0.0 mm 0.00 in0.0 mm
12:31 AM 71.8°F22.1°C 71.2°F21.8°C 98% 4.9 mph S7.9 kmh S 4.9 mph7.9 kmh 30.37 in1028.4 mb 0.00 in0.0 mm 0.00 in0.0 mm 0.00 in0.0 mm
12:30 AM 71.8°F22.1°C 71.2°F21.8°C 98% 1.6 mph SSE2.6 kmh SSE 2.5 mph4.0 kmh 30.37 in1028.4 mb 0.00 in0.0 mm 0.00 in0.0 mm 0.00 in0.0 mm
12:29 AM 71.8°F22.1°C 71.2°F21.8°C 98% 4.5 mph SE7.2 kmh SE 4.9 mph7.9 kmh 30.38 in1028.8 mb 0.00 in0.0 mm 0.00 in0.0 mm 0.00 in0.0 mm
12:28 AM 71.8°F22.1°C 71.2°F21.8°C 98% 7.6 mph SE12.2 kmh SE 10.1 mph16.3 kmh 30.37 in1028.4 mb 0.00 in0.0 mm 0.00 in0.0 mm 0.00 in0.0 mm
12:27 AM 71.8°F22.1°C 71.2°F21.8°C 98% 3.4 mph SSE5.5 kmh SSE 4.9 mph7.9 kmh 30.38 in1028.8 mb 0.00 in0.0 mm 0.00 in0.0 mm 0.00 in0.0 mm
12:26 AM 71.8°F22.1°C 71.2°F21.8°C 98% 4.5 mph S7.2 kmh S 4.9 mph7.9 kmh 30.38 in1028.8 mb 0.00 in0.0 mm 0.00 in0.0 mm 0.00 in0.0 mm
12:25 AM 71.8°F22.1°C 71.2°F21.8°C 98% 4.5 mph SSE7.2 kmh SSE 4.9 mph7.9 kmh 30.37 in1028.4 mb 0.00 in0.0 mm 0.00 in0.0 mm 0.00 in0.0 mm
12:24 AM 71.8°F22.1°C 71.2°F21.8°C 98% 4.5 mph SSE7.2 kmh SSE 4.9 mph7.9 kmh 30.38 in1028.8 mb 0.00 in0.0 mm 0.00 in0.0 mm 0.00 in0.0 mm
12:22 AM 71.8°F22.1°C 71.2°F21.8°C 98% 3.8 mph SSE6.1 kmh SSE 4.9 mph7.9 kmh 30.38 in1028.8 mb 0.00 in0.0 mm 0.00 in0.0 mm 0.00 in0.0 mm
12:21 AM 71.8°F22.1°C 71.2°F21.8°C 98% 3.8 mph SE6.1 kmh SE 4.9 mph7.9 kmh 30.38 in1028.8 mb 0.00 in0.0 mm 0.00 in0.0 mm 0.00 in0.0 mm
12:20 AM 71.8°F22.1°C 71.2°F21.8°C 98% 0.9 mph S1.4 kmh S 2.5 mph4.0 kmh 30.39 in1029.1 mb 0.00 in0.0 mm 0.00 in0.0 mm 0.00 in0.0 mm
12:19 AM 71.8°F22.1°C 71.2°F21.8°C 98% 2.9 mph SSE4.7 kmh SSE 4.9 mph7.9 kmh 30.38 in1028.8 mb 0.00 in0.0 mm 0.00 in0.0 mm 0.00 in0.0 mm
12:18 AM 71.8°F22.1°C 71.2°F21.8°C 98% 3.8 mph SE6.1 kmh SE 4.9 mph7.9 kmh 30.38 in1028.8 mb 0.00 in0.0 mm 0.00 in0.0 mm 0.00 in0.0 mm
12:17 AM 71.8°F22.1°C 71.2°F21.8°C 98% 2.9 mph SSE4.7 kmh SSE 4.9 mph7.9 kmh 30.38 in1028.8 mb 0.00 in0.0 mm 0.00 in0.0 mm 0.00 in0.0 mm
12:16 AM 71.8°F22.1°C 70.9°F21.6°C 97% 3.8 mph SE6.1 kmh SE 4.9 mph7.9 kmh 30.38 in1028.8 mb 0.00 in0.0 mm 0.00 in0.0 mm 0.00 in0.0 mm
12:15 AM 71.8°F22.1°C 71.2°F21.8°C 98% 5.4 mph SE8.7 kmh SE 7.6 mph12.2 kmh 30.38 in1028.8 mb 0.00 in0.0 mm 0.00 in0.0 mm 0.00 in0.0 mm
12:14 AM 71.8°F22.1°C 71.2°F21.8°C 98% 4.5 mph SE7.2 kmh SE 4.9 mph7.9 kmh 30.38 in1028.8 mb 0.00 in0.0 mm 0.00 in0.0 mm 0.00 in0.0 mm
12:12 AM 71.8°F22.1°C 70.9°F21.6°C 97% 2.5 mph SE4.0 kmh SE 4.9 mph7.9 kmh 30.38 in1028.8 mb 0.00 in0.0 mm 0.00 in0.0 mm 0.00 in0.0 mm
12:11 AM 71.8°F22.1°C 71.2°F21.8°C 98% 4.0 mph SSE6.4 kmh SSE 4.9 mph7.9 kmh 30.38 in1028.8 mb 0.00 in0.0 mm 0.00 in0.0 mm 0.00 in0.0 mm
12:10 AM 71.8°F22.1°C 71.2°F21.8°C 98% 5.6 mph S9.0 kmh S 7.6 mph12.2 kmh 30.38 in1028.8 mb 0.00 in0.0 mm 0.00 in0.0 mm 0.00 in0.0 mm
12:08 AM 71.6°F22.0°C 71.0°F21.7°C 98% 1.3 mph SE2.1 kmh SE 2.5 mph4.0 kmh 30.38 in1028.8 mb 0.00 in0.0 mm 0.00 in0.0 mm 0.00 in0.0 mm
12:07 AM 71.6°F22.0°C 71.0°F21.7°C 98% 4.0 mph S6.4 kmh S 4.9 mph7.9 kmh 30.38 in1028.8 mb 0.00 in0.0 mm 0.00 in0.0 mm 0.00 in0.0 mm
12:06 AM 71.6°F22.0°C 71.0°F21.7°C 98% 2.9 mph SE4.7 kmh SE 4.9 mph7.9 kmh 30.38 in1028.8 mb 0.00 in0.0 mm 0.00 in0.0 mm 0.00 in0.0 mm
12:04 AM 71.6°F22.0°C 71.0°F21.7°C 98% 3.8 mph SSE6.1 kmh SSE 4.9 mph7.9 kmh 30.38 in1028.8 mb 0.00 in0.0 mm 0.00 in0.0 mm 0.00 in0.0 mm
12:03 AM 71.6°F22.0°C 71.0°F21.7°C 98% 6.0 mph SE9.7 kmh SE 7.6 mph12.2 kmh 30.38 in1028.8 mb 0.00 in0.0 mm 0.00 in0.0 mm 0.00 in0.0 mm
12:01 AM 71.6°F22.0°C 71.0°F21.7°C 98% 2.5 mph S4.0 kmh S 4.9 mph7.9 kmh 30.38 in1028.8 mb 0.00 in0.0 mm 0.00 in0.0 mm 0.00 in0.0 mm